createdAt,value
2022-08-21T00:00:34.686Z,585.1
2022-08-21T00:01:37.179Z,585.3
2022-08-21T00:02:39.751Z,585.2
2022-08-21T00:03:42.288Z,585.2
2022-08-21T00:05:49.482Z,584.9
2022-08-21T00:06:51.958Z,585.2
2022-08-21T00:07:54.169Z,585.1
2022-08-21T00:08:56.629Z,585.1
2022-08-21T00:09:58.843Z,585.3
2022-08-21T00:11:01.315Z,584.9
2022-08-21T00:12:04.793Z,585.5
2022-08-21T00:13:06.713Z,585.4
2022-08-21T00:14:09.190Z,585.4
2022-08-21T00:15:16.438Z,585
2022-08-21T00:16:18.928Z,585.4
2022-08-21T00:17:21.416Z,585.2
2022-08-21T00:18:23.913Z,585.6
2022-08-21T00:19:25.828Z,585.6
2022-08-21T00:20:28.027Z,585.7
2022-08-21T00:21:29.929Z,585.5
2022-08-21T00:22:32.426Z,585.6
2022-08-21T00:23:34.910Z,585.9
2022-08-21T00:24:37.419Z,585.2
2022-08-21T00:25:39.634Z,585.8
2022-08-21T00:26:41.841Z,586.2
2022-08-21T00:27:44.062Z,585.6
2022-08-21T00:28:45.711Z,586.1
2022-08-21T00:29:48.180Z,586.1
2022-08-21T00:30:50.653Z,585.9
2022-08-21T00:31:53.156Z,586.1
2022-08-21T00:32:55.489Z,586
2022-08-21T00:35:03.011Z,586.3
2022-08-21T00:36:05.483Z,586.3
2022-08-21T00:37:07.954Z,586.2
2022-08-21T00:38:10.419Z,586.1
2022-08-21T00:39:12.923Z,586.1
2022-08-21T00:40:15.741Z,586.2
2022-08-21T00:42:23.019Z,585.8
2022-08-21T00:43:25.484Z,585.9
2022-08-21T00:44:27.961Z,586
2022-08-21T00:45:30.434Z,586.4
2022-08-21T00:46:32.619Z,586.2
2022-08-21T00:47:34.826Z,585.8
2022-08-21T00:48:37.295Z,585.9
2022-08-21T00:49:39.508Z,586.1
2022-08-21T00:50:41.722Z,586.2
2022-08-21T00:51:44.204Z,585.9
2022-08-21T00:52:46.401Z,585.8
2022-08-21T00:54:53.876Z,586.1
2022-08-21T00:56:01.306Z,586.1
2022-08-21T00:57:04.784Z,586.4
2022-08-21T00:59:12.409Z,586.4
2022-08-21T01:00:14.337Z,586.6
2022-08-21T01:02:22.787Z,586.6
2022-08-21T01:03:26.637Z,586.6
2022-08-21T01:04:28.840Z,586.8
2022-08-21T01:05:31.323Z,586.8
2022-08-21T01:06:33.798Z,586.8
2022-08-21T01:07:36.266Z,587.2
2022-08-21T01:09:44.176Z,587.2
2022-08-21T01:11:53.614Z,587.4
2022-08-21T01:12:56.559Z,587
2022-08-21T01:13:59.153Z,587
2022-08-21T01:15:01.630Z,586.9
2022-08-21T01:16:03.832Z,587.3
2022-08-21T01:17:06.017Z,587
2022-08-21T01:18:08.498Z,587.4
2022-08-21T01:19:13.107Z,587.6
2022-08-21T01:20:15.575Z,587.7
2022-08-21T01:21:19.833Z,587.5
2022-08-21T01:22:22.303Z,587.7
2022-08-21T01:23:24.770Z,587.9
2022-08-21T01:24:27.259Z,587.7
2022-08-21T01:25:29.727Z,587.6
2022-08-21T01:27:37.217Z,587.6
2022-08-21T01:28:39.715Z,588
2022-08-21T01:29:41.647Z,587.7
2022-08-21T01:30:44.123Z,587.9
2022-08-21T01:31:46.604Z,587.8
2022-08-21T01:32:49.084Z,587.9
2022-08-21T01:33:51.297Z,588.2
2022-08-21T01:34:53.762Z,588.2
2022-08-21T01:35:56.038Z,588.4
2022-08-21T01:36:58.235Z,588.3
2022-08-21T01:38:00.719Z,588.4
2022-08-21T01:39:02.976Z,588.2
2022-08-21T01:40:05.839Z,588.2
2022-08-21T01:41:08.341Z,588.1
2022-08-21T01:42:10.562Z,588
2022-08-21T01:43:12.771Z,587.9
2022-08-21T01:44:14.707Z,587.7
2022-08-21T01:45:16.911Z,587.9
2022-08-21T01:46:19.389Z,587.8
2022-08-21T01:47:21.876Z,588.1
2022-08-21T01:48:24.366Z,587.7
2022-08-21T01:49:26.858Z,587.6
2022-08-21T01:50:29.053Z,587.8
2022-08-21T01:51:30.696Z,587.8
2022-08-21T01:52:32.333Z,587.9
2022-08-21T01:53:35.837Z,587.8
2022-08-21T01:54:37.764Z,587.8
2022-08-21T01:55:39.962Z,588.2
2022-08-21T01:56:42.436Z,587.8
2022-08-21T01:57:44.906Z,588.2
2022-08-21T01:58:47.385Z,588.3
2022-08-21T01:59:49.868Z,588.2
2022-08-21T02:00:52.703Z,588.6
2022-08-21T02:01:54.916Z,588.6
2022-08-21T02:02:58.070Z,588.6
2022-08-21T02:04:00.592Z,588.6
2022-08-21T02:05:02.507Z,588.9
2022-08-21T02:06:04.987Z,588.9
2022-08-21T02:08:12.462Z,589.2
2022-08-21T02:09:15.352Z,589.3
2022-08-21T02:10:18.912Z,589.3
2022-08-21T02:11:21.378Z,589.3
2022-08-21T02:12:23.593Z,589.7
2022-08-21T02:13:26.062Z,589.6
2022-08-21T02:15:33.566Z,590
2022-08-21T02:16:37.323Z,590.2
2022-08-21T02:17:39.828Z,590.3
2022-08-21T02:18:42.305Z,590.1
2022-08-21T02:19:44.240Z,590.2
2022-08-21T02:20:46.412Z,590.4
2022-08-21T02:21:48.882Z,589.8
2022-08-21T02:22:51.538Z,590
2022-08-21T02:23:54.034Z,590.5
2022-08-21T02:24:57.385Z,590.1
2022-08-21T02:25:59.858Z,590.4
2022-08-21T02:27:02.064Z,590.1
2022-08-21T02:28:04.538Z,589.9
2022-08-21T02:29:07.014Z,590
2022-08-21T02:30:09.224Z,590
2022-08-21T02:31:11.708Z,590.5
2022-08-21T02:33:19.215Z,590.2
2022-08-21T02:34:21.685Z,590.2
2022-08-21T02:35:30.084Z,590.1
2022-08-21T02:36:32.290Z,589.6
2022-08-21T02:37:34.766Z,589.8
2022-08-21T02:38:36.955Z,589.7
2022-08-21T02:39:39.647Z,589.8
2022-08-21T02:41:47.132Z,589.8
2022-08-21T02:42:49.611Z,589.6
2022-08-21T02:43:51.835Z,589.5
2022-08-21T02:44:54.309Z,589.7
2022-08-21T02:45:56.249Z,589.6
2022-08-21T02:46:58.714Z,589.4
2022-08-21T02:48:02.012Z,589.5
2022-08-21T02:49:08.960Z,590.1
2022-08-21T02:50:10.906Z,590.2
2022-08-21T02:51:13.388Z,590
2022-08-21T02:52:15.580Z,590.2
2022-08-21T02:53:17.839Z,590.2
2022-08-21T02:54:19.739Z,590
2022-08-21T02:55:21.945Z,590.3
2022-08-21T02:56:25.334Z,590.5
2022-08-21T02:57:31.742Z,590.5
2022-08-21T02:58:34.217Z,590.7
2022-08-21T02:59:36.416Z,590.6
2022-08-21T03:00:38.592Z,590.7
2022-08-21T03:01:41.118Z,590.9
2022-08-21T03:02:43.338Z,590.4
2022-08-21T03:03:45.823Z,590.5
2022-08-21T03:04:48.328Z,590.5
2022-08-21T03:05:50.800Z,590.6
2022-08-21T03:06:53.271Z,590.3
2022-08-21T03:07:55.445Z,590.5
2022-08-21T03:08:57.370Z,590.3
2022-08-21T03:09:59.838Z,590.5
2022-08-21T03:11:02.320Z,590
2022-08-21T03:12:04.508Z,590.1
2022-08-21T03:13:06.436Z,590.4
2022-08-21T03:14:08.356Z,590.1
2022-08-21T03:15:10.852Z,590.2
2022-08-21T03:16:13.066Z,590.3
2022-08-21T03:17:15.545Z,590
2022-08-21T03:18:17.758Z,590.1
2022-08-21T03:19:20.228Z,590.1
2022-08-21T03:20:22.705Z,590.1
2022-08-21T03:21:24.913Z,589.8
2022-08-21T03:23:36.242Z,590.4
2022-08-21T03:25:44.295Z,589.7
2022-08-21T03:26:48.450Z,590
2022-08-21T03:28:55.606Z,589.8
2022-08-21T03:29:58.084Z,589.8
2022-08-21T03:31:00.286Z,589.4
2022-08-21T03:32:02.786Z,589.8
2022-08-21T03:33:04.982Z,590
2022-08-21T03:34:07.497Z,589.8
2022-08-21T03:35:10.726Z,590.1
2022-08-21T03:36:13.202Z,590.4
2022-08-21T03:37:15.699Z,590.2
2022-08-21T03:38:18.192Z,590.4
2022-08-21T03:39:20.673Z,590.3
2022-08-21T03:40:23.229Z,590.5
2022-08-21T03:41:25.433Z,590.2
2022-08-21T03:42:27.908Z,590.1
2022-08-21T03:44:35.375Z,590.2
2022-08-21T03:45:37.854Z,590.2
2022-08-21T03:46:39.780Z,590.2
2022-08-21T03:47:41.965Z,590.3
2022-08-21T03:48:44.441Z,590.2
2022-08-21T03:49:46.633Z,590.3
2022-08-21T03:50:49.109Z,590.2
2022-08-21T03:52:56.244Z,590
2022-08-21T03:53:58.738Z,589.5
2022-08-21T03:55:01.224Z,589.7
2022-08-21T03:56:03.695Z,589.7
2022-08-21T03:57:06.168Z,589.5
2022-08-21T03:59:13.639Z,589.6
2022-08-21T04:00:16.168Z,589.2
2022-08-21T04:01:18.949Z,589.1
2022-08-21T04:02:20.896Z,589
2022-08-21T04:03:23.382Z,588.9
2022-08-21T04:04:25.861Z,589.2
2022-08-21T04:05:28.375Z,589
2022-08-21T04:07:36.833Z,588.5
2022-08-21T04:08:39.030Z,588.8
2022-08-21T04:09:41.383Z,588.6
2022-08-21T04:10:43.871Z,588.8
2022-08-21T04:11:46.052Z,589.4
2022-08-21T04:12:48.259Z,588.9
2022-08-21T04:13:50.747Z,588.9
2022-08-21T04:14:53.231Z,588.6
2022-08-21T04:15:55.706Z,588.5
2022-08-21T04:16:58.230Z,588.7
2022-08-21T04:18:00.453Z,588.6
2022-08-21T04:19:03.017Z,588.6
2022-08-21T04:20:05.499Z,588.7
2022-08-21T04:22:12.984Z,588.6
2022-08-21T04:24:20.475Z,588.6
2022-08-21T04:25:22.661Z,587.9
2022-08-21T04:26:25.321Z,588.5
2022-08-21T04:27:27.335Z,587.9
2022-08-21T04:30:39.922Z,587.8
2022-08-21T04:31:42.415Z,587.5
2022-08-21T04:32:44.897Z,588.2
2022-08-21T04:33:46.853Z,588.1
2022-08-21T04:34:49.055Z,588.1
2022-08-21T04:35:51.525Z,587.9
2022-08-21T04:36:53.726Z,587.7
2022-08-21T04:37:55.669Z,588.1
2022-08-21T04:39:00.197Z,587.4
2022-08-21T04:40:08.254Z,587.7
2022-08-21T04:41:10.446Z,587.3
2022-08-21T04:42:12.654Z,587.5
2022-08-21T04:43:14.558Z,587.3
2022-08-21T04:44:16.756Z,587.5
2022-08-21T04:45:19.226Z,586.7
2022-08-21T04:46:21.703Z,586.9
2022-08-21T04:48:30.265Z,586.8
2022-08-21T04:49:32.732Z,586.7
2022-08-21T04:50:34.635Z,587
2022-08-21T04:51:37.115Z,587
2022-08-21T04:52:39.310Z,586.8
2022-08-21T04:53:41.992Z,587
2022-08-21T04:54:44.204Z,586.8
2022-08-21T04:55:46.399Z,586.8
2022-08-21T04:56:48.889Z,586.6
2022-08-21T04:57:51.204Z,586.7
2022-08-21T04:58:53.685Z,586.6
2022-08-21T04:59:56.154Z,587.1
2022-08-21T05:00:58.630Z,587.1
2022-08-21T05:02:01.640Z,586.8
2022-08-21T05:03:04.140Z,587.2
2022-08-21T05:04:06.043Z,586.9
2022-08-21T05:05:08.522Z,586.8
2022-08-21T05:06:10.726Z,586.8
2022-08-21T05:07:12.676Z,586.9
2022-08-21T05:08:15.202Z,586.6
2022-08-21T05:09:17.425Z,587.1
2022-08-21T05:10:19.601Z,586.7
2022-08-21T05:11:22.077Z,587
2022-08-21T05:12:23.997Z,586.8
2022-08-21T05:13:26.474Z,586.5
2022-08-21T05:14:28.945Z,587.2
2022-08-21T05:15:31.422Z,586.7
2022-08-21T05:17:38.632Z,586.9
2022-08-21T05:18:41.106Z,586.6
2022-08-21T05:19:43.309Z,586.6
2022-08-21T05:20:45.241Z,586.5
2022-08-21T05:21:47.452Z,586.4
2022-08-21T05:22:49.654Z,586.3
2022-08-21T05:23:51.858Z,586.3
2022-08-21T05:24:54.521Z,586.2
2022-08-21T05:25:56.759Z,585.9
2022-08-21T05:26:59.637Z,586.3
2022-08-21T05:28:08.496Z,586.4
2022-08-21T05:30:15.412Z,586.3
2022-08-21T05:31:17.884Z,586.4
2022-08-21T05:32:20.363Z,586.4
2022-08-21T05:33:22.837Z,586.6
2022-08-21T05:34:24.760Z,586.3
2022-08-21T05:35:27.234Z,586.3
2022-08-21T05:36:29.707Z,586
2022-08-21T05:37:32.199Z,586.4
2022-08-21T05:38:34.399Z,586.2
2022-08-21T05:40:41.641Z,586.3
2022-08-21T05:41:44.120Z,586.5
2022-08-21T05:43:51.601Z,586.2
2022-08-21T05:44:55.414Z,586
2022-08-21T05:45:57.360Z,586
2022-08-21T05:46:59.567Z,585.7
2022-08-21T05:48:04.027Z,585.7
2022-08-21T05:49:06.504Z,585.4
2022-08-21T05:50:08.991Z,585.9
2022-08-21T05:51:11.186Z,585.7
2022-08-21T05:52:13.681Z,585.6
2022-08-21T05:53:15.877Z,585.5
2022-08-21T05:54:19.426Z,585.2
2022-08-21T05:55:21.362Z,585.3
2022-08-21T05:56:23.573Z,585
2022-08-21T05:57:25.791Z,585.4
2022-08-21T05:58:27.694Z,585.4
2022-08-21T05:59:30.183Z,585.1
2022-08-21T06:00:32.664Z,585.3
2022-08-21T06:01:35.459Z,585.2
2022-08-21T06:02:37.984Z,585.3
2022-08-21T06:03:40.474Z,585.2
2022-08-21T06:04:42.406Z,585.1
2022-08-21T06:05:44.601Z,585.3
2022-08-21T06:06:46.812Z,584.8
2022-08-21T06:07:48.718Z,585
2022-08-21T06:08:51.221Z,585.1
2022-08-21T06:09:53.435Z,585.3
2022-08-21T06:10:55.931Z,585
2022-08-21T06:11:58.403Z,585.2
2022-08-21T06:13:01.748Z,585.3
2022-08-21T06:14:03.932Z,585.2
2022-08-21T06:15:06.425Z,585.4
2022-08-21T06:16:08.646Z,585.2
2022-08-21T06:17:11.128Z,585.2
2022-08-21T06:18:12.759Z,585.5
2022-08-21T06:19:15.237Z,585.2
2022-08-21T06:20:17.741Z,585.1
2022-08-21T06:21:19.945Z,585.2
2022-08-21T06:22:22.152Z,585.2
2022-08-21T06:24:29.350Z,584.9
2022-08-21T06:25:31.549Z,584.8
2022-08-21T06:26:34.042Z,584.5
2022-08-21T06:27:35.979Z,584.4
2022-08-21T06:28:38.480Z,584.7
2022-08-21T06:30:45.957Z,584.7
2022-08-21T06:31:49.796Z,584.8
2022-08-21T06:32:52.441Z,584.6
2022-08-21T06:33:54.649Z,584.8
2022-08-21T06:34:56.871Z,584.5
2022-08-21T06:35:59.080Z,584.7
2022-08-21T06:37:01.562Z,584.6
2022-08-21T06:38:04.102Z,584.5
2022-08-21T06:41:16.601Z,584.4
2022-08-21T06:42:19.075Z,584.6
2022-08-21T06:44:27.089Z,584.3
2022-08-21T06:46:34.296Z,584.7
2022-08-21T06:47:36.494Z,585.2
2022-08-21T06:48:38.981Z,585.2
2022-08-21T06:49:41.497Z,585.2
2022-08-21T06:50:43.711Z,585
2022-08-21T06:51:45.913Z,585.4
2022-08-21T06:52:48.503Z,585.2
2022-08-21T06:53:50.416Z,585.4
2022-08-21T06:54:52.893Z,585.2
2022-08-21T06:55:54.526Z,585.2
2022-08-21T06:56:56.725Z,585.3
2022-08-21T06:57:59.207Z,585.4
2022-08-21T06:59:01.420Z,585.4
2022-08-21T07:00:04.039Z,585.5
2022-08-21T07:01:06.645Z,585.7
2022-08-21T07:02:08.603Z,585.2
2022-08-21T07:03:10.818Z,585.7
2022-08-21T07:04:13.046Z,585.3
2022-08-21T07:06:20.238Z,585.8
2022-08-21T07:07:22.436Z,585.7
2022-08-21T07:08:24.650Z,585.6
2022-08-21T07:09:26.871Z,586.2
2022-08-21T07:10:29.369Z,586
2022-08-21T07:12:37.296Z,585.9
2022-08-21T07:13:39.500Z,585.8
2022-08-21T07:14:41.427Z,585.7
2022-08-21T07:15:43.632Z,585.9
2022-08-21T07:16:45.842Z,586.6
2022-08-21T07:17:48.319Z,586.4
2022-08-21T07:18:50.522Z,586.2
2022-08-21T07:19:52.699Z,586.6
2022-08-21T07:20:54.912Z,586.3
2022-08-21T07:21:57.422Z,586.4
2022-08-21T07:23:00.760Z,586.4
2022-08-21T07:24:03.060Z,586.6
2022-08-21T07:25:05.260Z,586.7
2022-08-21T07:26:07.479Z,586.7
2022-08-21T07:27:11.310Z,586.5
2022-08-21T07:28:13.807Z,586.7
2022-08-21T07:29:16.289Z,586.6
2022-08-21T07:30:18.771Z,587.1
2022-08-21T07:31:20.956Z,586.9
2022-08-21T07:32:23.315Z,586.9
2022-08-21T07:33:25.531Z,586.7
2022-08-21T07:34:27.725Z,586.8
2022-08-21T07:35:29.928Z,586.7
2022-08-21T07:37:37.132Z,586.5
2022-08-21T07:38:39.628Z,586.8
2022-08-21T07:39:42.447Z,586.6
2022-08-21T07:40:44.386Z,586.6
2022-08-21T07:41:46.595Z,586.9
2022-08-21T07:42:48.506Z,586.8
2022-08-21T07:46:00.989Z,586.6
2022-08-21T07:47:02.898Z,586.7
2022-08-21T07:48:04.825Z,586.8
2022-08-21T07:49:07.371Z,586.5
2022-08-21T07:50:09.324Z,587.1
2022-08-21T07:51:11.531Z,587.3
2022-08-21T07:52:14.019Z,586.8
2022-08-21T07:53:16.500Z,586.7
2022-08-21T07:55:24.866Z,587.5
2022-08-21T07:56:27.061Z,587.6
2022-08-21T07:57:29.620Z,587.5
2022-08-21T07:58:34.145Z,587.5
2022-08-21T07:59:36.332Z,587.5
2022-08-21T08:00:38.235Z,587.2
2022-08-21T08:01:41.014Z,587.2
2022-08-21T08:02:43.521Z,587.4
2022-08-21T08:03:46.009Z,587.5
2022-08-21T08:05:53.210Z,587.7
2022-08-21T08:06:55.417Z,587.6
2022-08-21T08:07:57.600Z,587.5
2022-08-21T08:08:59.219Z,587.8
2022-08-21T08:10:01.707Z,587.6
2022-08-21T08:11:04.208Z,587.8
2022-08-21T08:12:06.695Z,587.6
2022-08-21T08:14:13.914Z,587.5
2022-08-21T08:15:16.403Z,587.5
2022-08-21T08:16:18.917Z,587.4
2022-08-21T08:17:21.389Z,587.6
2022-08-21T08:18:23.316Z,587.7
2022-08-21T08:19:25.794Z,587.4
2022-08-21T08:20:28.010Z,587.6
2022-08-21T08:21:29.963Z,587.5
2022-08-21T08:22:32.457Z,587.9
2022-08-21T08:23:34.954Z,587.6
2022-08-21T08:24:37.190Z,587.7
2022-08-21T08:25:39.401Z,587.8
2022-08-21T08:26:41.628Z,587.5
2022-08-21T08:27:43.559Z,587.6
2022-08-21T08:28:45.458Z,587.9
2022-08-21T08:29:47.635Z,587.8
2022-08-21T08:30:50.120Z,588.1
2022-08-21T08:31:52.748Z,587.8
2022-08-21T08:32:55.407Z,587.9
2022-08-21T08:33:57.647Z,588.1
2022-08-21T08:35:01.123Z,588
2022-08-21T08:37:09.821Z,588.2
2022-08-21T08:38:12.485Z,588.2
2022-08-21T08:40:20.214Z,588.1
2022-08-21T08:41:22.772Z,588.2
2022-08-21T08:43:30.291Z,588.3
2022-08-21T08:44:32.526Z,588.3
2022-08-21T08:45:34.473Z,588.3
2022-08-21T08:46:36.979Z,588.5
2022-08-21T08:47:39.476Z,588.8
2022-08-21T08:48:41.731Z,588.4
2022-08-21T08:49:44.214Z,588.7
2022-08-21T08:50:46.687Z,588.7
2022-08-21T08:52:54.216Z,588.5
2022-08-21T08:53:56.394Z,588.7
2022-08-21T08:54:58.892Z,588.4
2022-08-21T08:56:01.107Z,588.4
2022-08-21T08:57:03.306Z,588.2
2022-08-21T08:58:05.227Z,588.3
2022-08-21T08:59:07.425Z,588.4
2022-08-21T09:00:10.163Z,588.4
2022-08-21T09:01:12.924Z,588.3
2022-08-21T09:02:15.446Z,588.5
2022-08-21T09:03:17.362Z,588.6
2022-08-21T09:04:19.838Z,588.6
2022-08-21T09:05:22.326Z,588.1
2022-08-21T09:06:24.815Z,588.1
2022-08-21T09:07:27.304Z,588.4
2022-08-21T09:08:29.593Z,588.9
2022-08-21T09:09:31.784Z,588.7
2022-08-21T09:10:34.267Z,588.7
2022-08-21T09:11:36.760Z,588.5
2022-08-21T09:12:39.228Z,589
2022-08-21T09:13:41.137Z,588.9
2022-08-21T09:14:43.065Z,588.7
2022-08-21T09:15:45.013Z,588.7
2022-08-21T09:16:47.215Z,588.8
2022-08-21T09:17:49.424Z,589.2
2022-08-21T09:18:51.910Z,589.1
2022-08-21T09:19:54.109Z,589.3
2022-08-21T09:20:56.579Z,589.5
2022-08-21T09:21:58.762Z,589.2
2022-08-21T09:23:02.113Z,589.1
2022-08-21T09:24:04.595Z,589
2022-08-21T09:25:07.075Z,589.4
2022-08-21T09:26:09.546Z,589.4
2022-08-21T09:27:12.025Z,589.3
2022-08-21T09:28:14.501Z,588.8
2022-08-21T09:29:16.688Z,589
2022-08-21T09:30:18.717Z,588.5
2022-08-21T09:31:20.923Z,588.8
2022-08-21T09:32:23.161Z,588.6
2022-08-21T09:33:30.110Z,589.2
2022-08-21T09:34:32.315Z,589.1
2022-08-21T09:35:34.557Z,589.3
2022-08-21T09:36:36.736Z,589.3
2022-08-21T09:37:39.224Z,589.2
2022-08-21T09:38:41.698Z,588.9
2022-08-21T09:40:48.965Z,589.5
2022-08-21T09:41:51.159Z,589.5
2022-08-21T09:42:52.947Z,589.7
2022-08-21T09:43:54.885Z,589.8
2022-08-21T09:44:57.378Z,589.7
2022-08-21T09:45:59.584Z,589.6
2022-08-21T09:47:02.054Z,589.6
2022-08-21T09:48:04.267Z,589.7
2022-08-21T09:50:13.979Z,589.8
2022-08-21T09:51:16.450Z,589.5
2022-08-21T09:52:18.936Z,589.7
2022-08-21T09:53:21.429Z,589.5
2022-08-21T09:54:24.007Z,589.6
2022-08-21T09:55:26.527Z,589.7
2022-08-21T09:57:35.522Z,590.1
2022-08-21T09:58:37.708Z,590
2022-08-21T09:59:39.933Z,590.9
2022-08-21T10:00:42.593Z,590.6
2022-08-21T10:01:44.831Z,590.5
2022-08-21T10:02:47.310Z,590.4
2022-08-21T10:03:49.800Z,590.5
2022-08-21T10:05:57.293Z,590.6
2022-08-21T10:06:59.892Z,590.7
2022-08-21T10:08:02.370Z,590.9
2022-08-21T10:09:04.560Z,591
2022-08-21T10:10:06.763Z,590.6
2022-08-21T10:11:08.958Z,590.7
2022-08-21T10:12:13.446Z,591.1
2022-08-21T10:13:15.929Z,590.7
2022-08-21T10:14:17.876Z,590.6
2022-08-21T10:15:20.353Z,590.7
2022-08-21T10:16:22.579Z,590.9
2022-08-21T10:17:25.050Z,590.9
2022-08-21T10:18:27.569Z,590.9
2022-08-21T10:19:29.749Z,591
2022-08-21T10:20:31.933Z,590.9
2022-08-21T10:21:34.110Z,591.1
2022-08-21T10:22:36.039Z,590.8
2022-08-21T10:23:38.519Z,590.5
2022-08-21T10:24:40.991Z,590.8
2022-08-21T10:26:47.886Z,590.2
2022-08-21T10:27:49.785Z,590.7
2022-08-21T10:28:52.276Z,590.6
2022-08-21T10:29:54.753Z,590.9
2022-08-21T10:30:57.104Z,590.8
2022-08-21T10:31:59.300Z,590.9
2022-08-21T10:33:01.773Z,590.7
2022-08-21T10:34:03.674Z,591
2022-08-21T10:35:06.159Z,591.2
2022-08-21T10:36:08.624Z,591.6
2022-08-21T10:37:12.963Z,591.7
2022-08-21T10:40:25.845Z,592
2022-08-21T10:41:28.335Z,591.8
2022-08-21T10:42:30.534Z,592.1
2022-08-21T10:43:32.716Z,592.3
2022-08-21T10:44:35.191Z,592
2022-08-21T10:45:37.670Z,591.9
2022-08-21T10:46:39.961Z,592.1
2022-08-21T10:47:42.454Z,592.4
2022-08-21T10:48:44.365Z,592.4
2022-08-21T10:49:46.300Z,592
2022-08-21T10:50:48.482Z,592
2022-08-21T10:51:50.948Z,592.5
2022-08-21T10:52:53.282Z,592.4
2022-08-21T10:53:55.480Z,592.6
2022-08-21T10:54:57.951Z,592.8
2022-08-21T10:56:00.422Z,592.7
2022-08-21T10:58:07.947Z,592.4
2022-08-21T10:59:10.441Z,592.7
2022-08-21T11:00:12.780Z,592.2
2022-08-21T11:01:15.681Z,592.8
2022-08-21T11:02:18.380Z,592.5
2022-08-21T11:03:20.584Z,592.7
2022-08-21T11:04:23.060Z,593.1
2022-08-21T11:05:24.700Z,593.1
2022-08-21T11:06:26.636Z,592.6
2022-08-21T11:08:34.579Z,592.8
2022-08-21T11:09:41.675Z,592.4
2022-08-21T11:12:54.437Z,592.4
2022-08-21T11:14:01.392Z,592.8
2022-08-21T11:15:03.716Z,593
2022-08-21T11:16:06.107Z,593
2022-08-21T11:18:14.269Z,593.2
2022-08-21T11:19:16.740Z,593.5
2022-08-21T11:20:18.941Z,593.9
2022-08-21T11:21:21.411Z,593.8
2022-08-21T11:22:23.648Z,594.1
2022-08-21T11:23:26.343Z,594.7
2022-08-21T11:24:28.814Z,594.5
2022-08-21T11:26:36.010Z,594.3
2022-08-21T11:27:38.220Z,594.3
2022-08-21T11:28:40.695Z,594.4
2022-08-21T11:29:43.220Z,594.7
2022-08-21T11:30:45.695Z,594.7
2022-08-21T11:31:47.875Z,594.9
2022-08-21T11:32:50.251Z,594.8
2022-08-21T11:33:52.468Z,595.2
2022-08-21T11:34:54.946Z,594.6
2022-08-21T11:35:57.453Z,594.8
2022-08-21T11:36:59.928Z,594.8
2022-08-21T11:38:01.832Z,594.9
2022-08-21T11:39:04.303Z,594.9
2022-08-21T11:40:06.855Z,594.9
2022-08-21T11:41:08.548Z,594.8
2022-08-21T11:42:11.348Z,595
2022-08-21T11:43:13.824Z,595.1
2022-08-21T11:44:16.161Z,595
2022-08-21T11:45:18.344Z,594.9
2022-08-21T11:46:20.833Z,595.1
2022-08-21T11:47:23.123Z,595.1
2022-08-21T11:48:25.598Z,594.9
2022-08-21T11:49:28.078Z,594.9
2022-08-21T11:51:35.559Z,594.8
2022-08-21T11:52:38.033Z,594.5
2022-08-21T11:53:40.234Z,594.7
2022-08-21T11:54:42.778Z,594.8
2022-08-21T11:55:45.273Z,594.9
2022-08-21T11:56:47.753Z,595
2022-08-21T11:57:50.239Z,595.2
2022-08-21T11:59:59.977Z,595.3
2022-08-21T12:01:01.877Z,595.4
2022-08-21T12:02:04.413Z,595.5
2022-08-21T12:03:06.338Z,595.9
2022-08-21T12:04:08.865Z,595.6
2022-08-21T12:05:11.187Z,595.6
2022-08-21T12:06:13.406Z,595.7
2022-08-21T12:07:15.321Z,596.2
2022-08-21T12:08:17.805Z,596.4
2022-08-21T12:09:20.294Z,596.4
2022-08-21T12:10:22.494Z,596.6
2022-08-21T12:12:29.993Z,596.8
2022-08-21T12:14:37.470Z,596.7
2022-08-21T12:15:39.953Z,596.7
2022-08-21T12:16:41.880Z,596.5
2022-08-21T12:17:44.080Z,596.4
2022-08-21T12:18:46.311Z,596.8
2022-08-21T12:19:48.785Z,597.1
2022-08-21T12:20:52.867Z,597
2022-08-21T12:21:54.808Z,596.9
2022-08-21T12:22:59.319Z,597.2
2022-08-21T12:24:01.354Z,597.2
2022-08-21T12:25:03.556Z,596.7
2022-08-21T12:26:05.752Z,596.8
2022-08-21T12:27:08.237Z,596.7
2022-08-21T12:28:10.732Z,596.9
2022-08-21T12:29:12.990Z,596.8
2022-08-21T12:30:14.949Z,597.2
2022-08-21T12:31:17.147Z,597.2
2022-08-21T12:32:19.619Z,597.5
2022-08-21T12:33:22.103Z,597.7
2022-08-21T12:34:24.579Z,597.6
2022-08-21T12:35:27.634Z,597.7
2022-08-21T12:36:29.540Z,597.9
2022-08-21T12:37:32.039Z,597.4
2022-08-21T12:38:33.736Z,597.7
2022-08-21T12:39:35.947Z,598.1
2022-08-21T12:40:38.441Z,598.1
2022-08-21T12:41:40.368Z,598
2022-08-21T12:42:42.877Z,598
2022-08-21T12:43:45.355Z,598.4
2022-08-21T12:45:53.731Z,598.5
2022-08-21T12:46:56.201Z,598.7
2022-08-21T12:47:58.139Z,598.9
2022-08-21T12:49:00.616Z,598.6
2022-08-21T12:50:03.171Z,598.7
2022-08-21T12:51:05.439Z,598.4
2022-08-21T12:52:07.937Z,598.4
2022-08-21T12:54:15.432Z,598.9
2022-08-21T12:55:17.639Z,599.4
2022-08-21T12:56:20.124Z,599.2
2022-08-21T12:57:23.800Z,599.6
2022-08-21T12:58:26.276Z,599.7
2022-08-21T12:59:28.455Z,599.9
2022-08-21T13:00:30.675Z,599.5
2022-08-21T13:01:35.241Z,599.7
2022-08-21T13:02:40.511Z,599.7
2022-08-21T13:03:42.710Z,600.2
2022-08-21T13:04:45.193Z,599.8
2022-08-21T13:05:47.374Z,599.8
2022-08-21T13:06:49.600Z,600.2
2022-08-21T13:07:52.057Z,599.6
2022-08-21T13:08:54.267Z,599.5
2022-08-21T13:09:56.761Z,599.6
2022-08-21T13:12:06.927Z,599.7
2022-08-21T13:14:14.731Z,600
2022-08-21T13:15:16.928Z,600
2022-08-21T13:16:21.774Z,599.8
2022-08-21T13:18:29.385Z,599.9
2022-08-21T13:19:31.591Z,600.1
2022-08-21T13:20:33.528Z,599.9
2022-08-21T13:21:35.731Z,599.8
2022-08-21T13:22:37.651Z,600.1
2022-08-21T13:23:39.347Z,600.1
2022-08-21T13:25:46.548Z,599.7
2022-08-21T13:26:49.014Z,600.2
2022-08-21T13:27:51.489Z,600
2022-08-21T13:28:54.080Z,600.2
2022-08-21T13:29:57.374Z,600.3
2022-08-21T13:30:59.298Z,600.3
2022-08-21T13:32:01.795Z,600.8
2022-08-21T13:33:04.270Z,600.8
2022-08-21T13:34:06.915Z,600.8
2022-08-21T13:35:09.154Z,601
2022-08-21T13:36:11.386Z,600.7
2022-08-21T13:37:13.619Z,600.7
2022-08-21T13:38:16.089Z,600.8
2022-08-21T13:39:18.574Z,601.1
2022-08-21T13:40:21.287Z,601.2
2022-08-21T13:41:23.837Z,601.3
2022-08-21T13:42:26.070Z,601.2
2022-08-21T13:43:28.292Z,601.5
2022-08-21T13:44:31.823Z,602.1
2022-08-21T13:45:34.038Z,602
2022-08-21T13:46:35.975Z,601.9
2022-08-21T13:47:38.457Z,601.9
2022-08-21T13:48:40.950Z,602.2
2022-08-21T13:49:43.152Z,602.4
2022-08-21T13:50:45.637Z,601.9
2022-08-21T13:51:47.837Z,602.1
2022-08-21T13:52:51.225Z,602.1
2022-08-21T13:53:53.181Z,602.5
2022-08-21T13:54:55.672Z,602.6
2022-08-21T13:57:03.170Z,602.6
2022-08-21T13:58:05.489Z,602.6
2022-08-21T13:59:07.965Z,602
2022-08-21T14:00:10.493Z,602.2
2022-08-21T14:01:12.913Z,602
2022-08-21T14:02:18.404Z,602.1
2022-08-21T14:03:21.938Z,601.7
2022-08-21T14:04:24.132Z,601.6
2022-08-21T14:05:26.626Z,601.3
2022-08-21T14:06:29.120Z,601.6
2022-08-21T14:07:31.319Z,601.3
2022-08-21T14:08:33.792Z,601.5
2022-08-21T14:09:36.284Z,601.2
2022-08-21T14:10:38.754Z,601.5
2022-08-21T14:11:40.988Z,601.5
2022-08-21T14:12:43.444Z,601.6
2022-08-21T14:13:45.920Z,601.7
2022-08-21T14:14:48.696Z,601.8
2022-08-21T14:15:50.916Z,602.2
2022-08-21T14:16:53.394Z,601.8
2022-08-21T14:17:55.868Z,602.1
2022-08-21T14:20:02.826Z,602.1
2022-08-21T14:21:05.309Z,602.1
2022-08-21T14:22:08.674Z,602.1
2022-08-21T14:23:11.145Z,602.1
2022-08-21T14:25:21.635Z,602.3
2022-08-21T14:26:24.105Z,602.3
2022-08-21T14:27:26.594Z,602.6
2022-08-21T14:28:30.661Z,602.3
2022-08-21T14:30:39.078Z,602.5
2022-08-21T14:32:49.150Z,603.2
2022-08-21T14:33:51.362Z,602.7
2022-08-21T14:36:02.053Z,602.9
2022-08-21T14:37:04.574Z,602.5
2022-08-21T14:38:07.059Z,603
2022-08-21T14:39:09.264Z,602.6
2022-08-21T14:40:14.121Z,602.5
2022-08-21T14:41:16.606Z,603.1
2022-08-21T14:42:18.800Z,603.3
2022-08-21T14:43:21.316Z,603.1
2022-08-21T14:44:23.251Z,602.3
2022-08-21T14:46:30.740Z,603.4
2022-08-21T14:47:32.953Z,603.1
2022-08-21T14:48:34.997Z,603.3
2022-08-21T14:49:37.220Z,603.1
2022-08-21T14:50:39.688Z,603.6
2022-08-21T14:52:47.182Z,603.6
2022-08-21T14:53:49.660Z,603.8